sensor_id;sensor_type;location;lat;lon;timestamp;pressure;altitude;pressure_sealevel;temperature;humidity
58879;BME280;44660;42.664;23.266;2023-03-25T00:00:49;94268.41;;;9.09;63.77
58879;BME280;44660;42.664;23.266;2023-03-25T00:03:18;94267.56;;;8.92;63.37
58879;BME280;44660;42.664;23.266;2023-03-25T00:05:44;94262.63;;;8.83;63.83
58879;BME280;44660;42.664;23.266;2023-03-25T00:08:10;94283.41;;;9.04;63.66
58879;BME280;44660;42.664;23.266;2023-03-25T00:10:35;94191.94;;;8.43;64.53
58879;BME280;44660;42.664;23.266;2023-03-25T00:13:01;94248.25;;;8.79;64.67
58879;BME280;44660;42.664;23.266;2023-03-25T00:15:29;94276.56;;;8.91;63.93
58879;BME280;44660;42.664;23.266;2023-03-25T00:17:59;94243.56;;;8.70;64.46
58879;BME280;44660;42.664;23.266;2023-03-25T00:20:25;94253.13;;;8.71;64.22
58879;BME280;44660;42.664;23.266;2023-03-25T00:22:52;94225.00;;;8.53;63.33
58879;BME280;44660;42.664;23.266;2023-03-25T00:25:18;94243.78;;;8.51;64.02
58879;BME280;44660;42.664;23.266;2023-03-25T00:27:46;94243.19;;;8.61;64.11
58879;BME280;44660;42.664;23.266;2023-03-25T00:30:14;94244.41;;;8.70;64.28
58879;BME280;44660;42.664;23.266;2023-03-25T00:32:39;94241.84;;;8.75;64.26
58879;BME280;44660;42.664;23.266;2023-03-25T00:35:05;94262.44;;;8.85;64.95
58879;BME280;44660;42.664;23.266;2023-03-25T00:37:32;94255.19;;;8.80;64.10
58879;BME280;44660;42.664;23.266;2023-03-25T00:39:58;94257.91;;;8.69;63.80
58879;BME280;44660;42.664;23.266;2023-03-25T00:42:23;94239.63;;;8.55;63.57
58879;BME280;44660;42.664;23.266;2023-03-25T00:44:52;94221.09;;;8.43;64.20
58879;BME280;44660;42.664;23.266;2023-03-25T00:47:18;94255.53;;;8.72;65.14
58879;BME280;44660;42.664;23.266;2023-03-25T00:49:46;94249.22;;;8.73;65.47
58879;BME280;44660;42.664;23.266;2023-03-25T00:52:12;94236.63;;;8.52;64.61
58879;BME280;44660;42.664;23.266;2023-03-25T00:54:38;94249.50;;;8.60;64.65
58879;BME280;44660;42.664;23.266;2023-03-25T00:57:04;94231.41;;;8.57;64.15
58879;BME280;44660;42.664;23.266;2023-03-25T00:59:29;94247.41;;;8.62;64.38
58879;BME280;44660;42.664;23.266;2023-03-25T01:01:55;94201.09;;;8.36;63.99
58879;BME280;44660;42.664;23.266;2023-03-25T01:04:21;94182.44;;;8.30;64.98
58879;BME280;44660;42.664;23.266;2023-03-25T01:06:47;94210.41;;;8.38;64.66
58879;BME280;44660;42.664;23.266;2023-03-25T01:09:16;94214.41;;;8.53;64.43
58879;BME280;44660;42.664;23.266;2023-03-25T01:11:43;94223.63;;;8.50;64.39
58879;BME280;44660;42.664;23.266;2023-03-25T01:14:16;94193.34;;;8.34;64.25
58879;BME280;44660;42.664;23.266;2023-03-25T01:16:42;94200.25;;;8.35;64.10
58879;BME280;44660;42.664;23.266;2023-03-25T01:19:08;94212.31;;;8.43;64.12
58879;BME280;44660;42.664;23.266;2023-03-25T01:21:34;94184.66;;;8.22;64.42
58879;BME280;44660;42.664;23.266;2023-03-25T01:24:01;94208.31;;;8.40;64.14
58879;BME280;44660;42.664;23.266;2023-03-25T01:26:27;94205.81;;;8.33;64.55
58879;BME280;44660;42.664;23.266;2023-03-25T01:28:53;94155.00;;;8.08;64.01
58879;BME280;44660;42.664;23.266;2023-03-25T01:31:18;94211.59;;;8.30;64.62
58879;BME280;44660;42.664;23.266;2023-03-25T01:33:47;94173.88;;;8.11;64.65
58879;BME280;44660;42.664;23.266;2023-03-25T01:36:13;94184.66;;;8.22;64.83
58879;BME280;44660;42.664;23.266;2023-03-25T01:38:39;94165.38;;;8.09;64.55
58879;BME280;44660;42.664;23.266;2023-03-25T01:41:05;94198.47;;;8.24;64.89
58879;BME280;44660;42.664;23.266;2023-03-25T01:43:31;94198.00;;;8.27;64.45
58879;BME280;44660;42.664;23.266;2023-03-25T01:45:57;94170.66;;;8.09;64.82
58879;BME280;44660;42.664;23.266;2023-03-25T01:48:28;94189.78;;;8.11;65.34
58879;BME280;44660;42.664;23.266;2023-03-25T01:51:13;94178.50;;;8.04;66.03
58879;BME280;44660;42.664;23.266;2023-03-25T01:53:41;94180.91;;;8.06;65.76
58879;BME280;44660;42.664;23.266;2023-03-25T01:56:08;94182.19;;;8.03;65.64
58879;BME280;44660;42.664;23.266;2023-03-25T01:58:37;94194.06;;;8.00;65.46
58879;BME280;44660;42.664;23.266;2023-03-25T02:01:04;94183.59;;;7.94;65.43
58879;BME280;44660;42.664;23.266;2023-03-25T02:03:31;94176.59;;;7.88;66.47
58879;BME280;44660;42.664;23.266;2023-03-25T02:06:08;94191.66;;;7.99;66.38
58879;BME280;44660;42.664;23.266;2023-03-25T02:08:37;94186.34;;;7.99;65.74
58879;BME280;44660;42.664;23.266;2023-03-25T02:11:04;94182.66;;;8.00;66.68
58879;BME280;44660;42.664;23.266;2023-03-25T02:13:31;94138.19;;;7.73;66.61
58879;BME280;44660;42.664;23.266;2023-03-25T02:16:23;94164.16;;;7.88;66.37
58879;BME280;44660;42.664;23.266;2023-03-25T02:22:11;94155.78;;;7.79;65.80
58879;BME280;44660;42.664;23.266;2023-03-25T02:25:14;94171.41;;;7.93;66.47
58879;BME280;44660;42.664;23.266;2023-03-25T02:31:00;94174.28;;;7.91;66.77
58879;BME280;44660;42.664;23.266;2023-03-25T02:44:38;94143.50;;;7.61;66.31
58879;BME280;44660;42.664;23.266;2023-03-25T02:47:08;94171.22;;;7.82;66.61
58879;BME280;44660;42.664;23.266;2023-03-25T02:49:43;94157.19;;;7.70;66.88
58879;BME280;44660;42.664;23.266;2023-03-25T02:52:14;94137.06;;;7.69;66.94
58879;BME280;44660;42.664;23.266;2023-03-25T02:54:42;94169.44;;;7.88;66.56
58879;BME280;44660;42.664;23.266;2023-03-25T02:57:14;94126.25;;;7.59;66.73
58879;BME280;44660;42.664;23.266;2023-03-25T02:59:42;94163.81;;;7.84;66.98
58879;BME280;44660;42.664;23.266;2023-03-25T03:02:09;94140.88;;;7.61;66.68
58879;BME280;44660;42.664;23.266;2023-03-25T03:04:47;94137.97;;;7.63;67.13
58879;BME280;44660;42.664;23.266;2023-03-25T03:07:34;94164.44;;;7.63;67.03
58879;BME280;44660;42.664;23.266;2023-03-25T03:10:26;94154.34;;;7.60;67.15
58879;BME280;44660;42.664;23.266;2023-03-25T03:13:37;94106.50;;;7.38;66.80
58879;BME280;44660;42.664;23.266;2023-03-25T03:16:11;94163.78;;;7.56;67.12
58879;BME280;44660;42.664;23.266;2023-03-25T03:19:07;94153.09;;;7.50;67.28
58879;BME280;44660;42.664;23.266;2023-03-25T03:21:59;94161.00;;;7.62;67.75
58879;BME280;44660;42.664;23.266;2023-03-25T03:24:40;94156.88;;;7.55;66.71
58879;BME280;44660;42.664;23.266;2023-03-25T03:27:18;94158.38;;;7.50;67.65
58879;BME280;44660;42.664;23.266;2023-03-25T03:32:40;94174.38;;;7.56;67.72
58879;BME280;44660;42.664;23.266;2023-03-25T03:35:33;94166.88;;;7.64;67.65
58879;BME280;44660;42.664;23.266;2023-03-25T03:38:11;94127.94;;;7.24;67.02
58879;BME280;44660;42.664;23.266;2023-03-25T03:40:59;94176.47;;;7.42;67.54
58879;BME280;44660;42.664;23.266;2023-03-25T03:43:27;94173.22;;;7.40;67.50
58879;BME280;44660;42.664;23.266;2023-03-25T03:45:58;94200.47;;;7.40;67.32
58879;BME280;44660;42.664;23.266;2023-03-25T03:48:31;94165.97;;;7.47;67.69
58879;BME280;44660;42.664;23.266;2023-03-25T03:51:05;94184.75;;;7.45;67.60
58879;BME280;44660;42.664;23.266;2023-03-25T03:53:39;94175.28;;;7.38;67.49
58879;BME280;44660;42.664;23.266;2023-03-25T03:56:10;94152.53;;;7.25;67.91
58879;BME280;44660;42.664;23.266;2023-03-25T03:58:40;94177.59;;;7.46;67.33
58879;BME280;44660;42.664;23.266;2023-03-25T04:03:41;94162.91;;;7.26;67.48
58879;BME280;44660;42.664;23.266;2023-03-25T04:07:22;94174.63;;;7.30;67.44
58879;BME280;44660;42.664;23.266;2023-03-25T04:14:31;94134.81;;;7.37;66.64
58879;BME280;44660;42.664;23.266;2023-03-25T04:16:57;94166.31;;;7.50;66.85
58879;BME280;44660;42.664;23.266;2023-03-25T04:19:24;94158.28;;;7.33;67.31
58879;BME280;44660;42.664;23.266;2023-03-25T04:21:50;94134.38;;;7.28;67.58
58879;BME280;44660;42.664;23.266;2023-03-25T04:24:16;94142.53;;;7.27;67.28
58879;BME280;44660;42.664;23.266;2023-03-25T04:26:44;94123.56;;;7.18;67.20
58879;BME280;44660;42.664;23.266;2023-03-25T04:29:09;94167.00;;;7.46;67.32
58879;BME280;44660;42.664;23.266;2023-03-25T04:31:38;94151.28;;;7.39;67.66
58879;BME280;44660;42.664;23.266;2023-03-25T04:34:12;94165.25;;;7.51;67.61
58879;BME280;44660;42.664;23.266;2023-03-25T04:36:40;94166.88;;;7.52;67.69
58879;BME280;44660;42.664;23.266;2023-03-25T04:39:09;94169.56;;;7.41;67.08
58879;BME280;44660;42.664;23.266;2023-03-25T04:41:36;94165.53;;;7.38;67.17
58879;BME280;44660;42.664;23.266;2023-03-25T04:44:01;94174.97;;;7.34;67.30
58879;BME280;44660;42.664;23.266;2023-03-25T04:46:27;94171.28;;;7.23;67.54
58879;BME280;44660;42.664;23.266;2023-03-25T04:48:52;94179.66;;;7.44;67.46
58879;BME280;44660;42.664;23.266;2023-03-25T04:51:21;94173.56;;;7.43;67.46
58879;BME280;44660;42.664;23.266;2023-03-25T04:53:47;94185.63;;;7.51;67.52
58879;BME280;44660;42.664;23.266;2023-03-25T04:56:15;94166.22;;;7.45;67.76
58879;BME280;44660;42.664;23.266;2023-03-25T04:58:44;94182.66;;;7.59;67.93
58879;BME280;44660;42.664;23.266;2023-03-25T05:01:25;94178.84;;;7.67;67.61
58879;BME280;44660;42.664;23.266;2023-03-25T05:04:01;94186.75;;;7.79;67.52
58879;BME280;44660;42.664;23.266;2023-03-25T05:06:34;94166.47;;;7.84;66.66
58879;BME280;44660;42.664;23.266;2023-03-25T05:09:02;94176.69;;;7.93;67.40
58879;BME280;44660;42.664;23.266;2023-03-25T05:11:29;94158.53;;;7.84;67.41
58879;BME280;44660;42.664;23.266;2023-03-25T05:13:55;94182.28;;;8.08;67.55
58879;BME280;44660;42.664;23.266;2023-03-25T05:16:21;94164.69;;;8.02;66.86
58879;BME280;44660;42.664;23.266;2023-03-25T05:18:47;94176.16;;;8.20;66.25
58879;BME280;44660;42.664;23.266;2023-03-25T05:21:12;94168.78;;;8.22;66.97
58879;BME280;44660;42.664;23.266;2023-03-25T05:23:38;94128.75;;;8.06;66.07
58879;BME280;44660;42.664;23.266;2023-03-25T05:26:04;94179.56;;;8.32;66.65
58879;BME280;44660;42.664;23.266;2023-03-25T05:28:30;94173.31;;;8.38;66.92
58879;BME280;44660;42.664;23.266;2023-03-25T05:30:55;94162.81;;;8.43;66.42
58879;BME280;44660;42.664;23.266;2023-03-25T05:33:22;94163.25;;;8.52;66.36
58879;BME280;44660;42.664;23.266;2023-03-25T05:35:47;94174.81;;;8.63;66.19
58879;BME280;44660;42.664;23.266;2023-03-25T05:38:14;94175.56;;;8.75;66.41
58879;BME280;44660;42.664;23.266;2023-03-25T05:40:46;94151.03;;;8.68;65.80
58879;BME280;44660;42.664;23.266;2023-03-25T05:43:15;94148.47;;;8.73;66.04
58879;BME280;44660;42.664;23.266;2023-03-25T05:45:41;94147.19;;;8.76;66.97
58879;BME280;44660;42.664;23.266;2023-03-25T05:48:07;94179.84;;;9.10;67.12
58879;BME280;44660;42.664;23.266;2023-03-25T05:50:34;94187.53;;;9.12;67.36
58879;BME280;44660;42.664;23.266;2023-03-25T05:53:00;94184.06;;;9.28;67.52
58879;BME280;44660;42.664;23.266;2023-03-25T05:55:26;94186.06;;;9.38;67.49
58879;BME280;44660;42.664;23.266;2023-03-25T05:57:52;94144.94;;;9.19;67.45
58879;BME280;44660;42.664;23.266;2023-03-25T06:00:19;94147.47;;;9.30;67.72
58879;BME280;44660;42.664;23.266;2023-03-25T06:02:45;94182.47;;;9.67;67.96
58879;BME280;44660;42.664;23.266;2023-03-25T06:05:13;94127.19;;;9.41;66.28
58879;BME280;44660;42.664;23.266;2023-03-25T06:07:41;94180.88;;;9.88;66.81
58879;BME280;44660;42.664;23.266;2023-03-25T06:10:10;94174.56;;;9.94;67.33
58879;BME280;44660;42.664;23.266;2023-03-25T06:12:36;94171.00;;;10.05;67.01
58879;BME280;44660;42.664;23.266;2023-03-25T06:15:06;94168.94;;;10.12;66.86
58879;BME280;44660;42.664;23.266;2023-03-25T06:17:33;94134.56;;;10.01;64.45
58879;BME280;44660;42.664;23.266;2023-03-25T06:20:10;94163.84;;;10.33;62.81
58879;BME280;44660;42.664;23.266;2023-03-25T06:22:42;94120.09;;;10.13;60.06
58879;BME280;44660;42.664;23.266;2023-03-25T06:25:15;94114.31;;;10.22;62.81
58879;BME280;44660;42.664;23.266;2023-03-25T06:27:42;94168.44;;;10.65;60.87
58879;BME280;44660;42.664;23.266;2023-03-25T06:30:09;94162.06;;;10.66;60.69
58879;BME280;44660;42.664;23.266;2023-03-25T06:32:36;94167.41;;;10.66;57.22
58879;BME280;44660;42.664;23.266;2023-03-25T06:35:04;94154.41;;;10.70;57.73
58879;BME280;44660;42.664;23.266;2023-03-25T06:37:30;94152.13;;;10.84;58.01
58879;BME280;44660;42.664;23.266;2023-03-25T06:39:55;94164.22;;;11.02;57.06
58879;BME280;44660;42.664;23.266;2023-03-25T06:42:25;94162.50;;;11.18;59.21
58879;BME280;44660;42.664;23.266;2023-03-25T06:44:51;94179.06;;;11.25;56.25
58879;BME280;44660;42.664;23.266;2023-03-25T06:47:17;94177.81;;;11.38;57.26
58879;BME280;44660;42.664;23.266;2023-03-25T06:49:43;94185.06;;;11.53;58.74
58879;BME280;44660;42.664;23.266;2023-03-25T06:52:08;94182.38;;;11.48;56.18
58879;BME280;44660;42.664;23.266;2023-03-25T06:54:34;94191.81;;;11.60;57.07
58879;BME280;44660;42.664;23.266;2023-03-25T06:56:59;94187.22;;;11.56;56.46
58879;BME280;44660;42.664;23.266;2023-03-25T06:59:25;94141.56;;;11.32;56.13
58879;BME280;44660;42.664;23.266;2023-03-25T07:01:50;94180.81;;;11.52;56.11
58879;BME280;44660;42.664;23.266;2023-03-25T07:04:16;94192.69;;;11.82;57.51
58879;BME280;44660;42.664;23.266;2023-03-25T07:06:41;94171.63;;;11.75;56.20
58879;BME280;44660;42.664;23.266;2023-03-25T07:09:07;94180.44;;;11.86;55.27
58879;BME280;44660;42.664;23.266;2023-03-25T07:11:33;94152.44;;;11.73;55.20
58879;BME280;44660;42.664;23.266;2023-03-25T07:13:59;94165.56;;;11.85;55.16
58879;BME280;44660;42.664;23.266;2023-03-25T07:16:25;94143.44;;;11.84;55.09
58879;BME280;44660;42.664;23.266;2023-03-25T07:18:50;94184.63;;;12.14;54.46
58879;BME280;44660;42.664;23.266;2023-03-25T07:21:17;94177.97;;;12.17;55.13
58879;BME280;44660;42.664;23.266;2023-03-25T07:23:43;94185.72;;;12.29;54.16
58879;BME280;44660;42.664;23.266;2023-03-25T07:26:08;94151.63;;;12.31;54.88
58879;BME280;44660;42.664;23.266;2023-03-25T07:28:34;94183.97;;;12.65;54.57
58879;BME280;44660;42.664;23.266;2023-03-25T07:31:08;94147.41;;;12.55;53.56
58879;BME280;44660;42.664;23.266;2023-03-25T07:33:34;94147.16;;;12.72;54.54
58879;BME280;44660;42.664;23.266;2023-03-25T07:36:01;94154.09;;;13.04;57.59
58879;BME280;44660;42.664;23.266;2023-03-25T07:38:26;94151.41;;;13.30;57.29
58879;BME280;44660;42.664;23.266;2023-03-25T07:40:51;94100.69;;;13.25;55.97
58879;BME280;44660;42.664;23.266;2023-03-25T07:43:17;94110.19;;;13.83;55.38
58879;BME280;44660;42.664;23.266;2023-03-25T07:45:42;94156.66;;;14.97;53.39
58879;BME280;44660;42.664;23.266;2023-03-25T07:48:08;94156.22;;;16.84;47.43
58879;BME280;44660;42.664;23.266;2023-03-25T07:50:39;94125.03;;;18.74;42.37
58879;BME280;44660;42.664;23.266;2023-03-25T07:53:04;94150.09;;;20.46;39.87
58879;BME280;44660;42.664;23.266;2023-03-25T07:55:30;94133.28;;;21.46;36.65
58879;BME280;44660;42.664;23.266;2023-03-25T07:57:55;94015.28;;;21.41;34.43
58879;BME280;44660;42.664;23.266;2023-03-25T08:00:22;94102.06;;;22.64;32.10
58879;BME280;44660;42.664;23.266;2023-03-25T08:02:48;94113.97;;;24.19;30.70
58879;BME280;44660;42.664;23.266;2023-03-25T08:05:14;94117.53;;;27.01;27.15
58879;BME280;44660;42.664;23.266;2023-03-25T08:07:46;94105.41;;;29.76;23.95
58879;BME280;44660;42.664;23.266;2023-03-25T08:10:12;94076.13;;;32.05;21.13
58879;BME280;44660;42.664;23.266;2023-03-25T08:12:39;94084.81;;;33.57;18.18
58879;BME280;44660;42.664;23.266;2023-03-25T08:15:06;94083.81;;;34.53;17.57
58879;BME280;44660;42.664;23.266;2023-03-25T08:17:31;94054.16;;;35.33;16.65
58879;BME280;44660;42.664;23.266;2023-03-25T08:19:57;94084.31;;;36.09;16.03
58879;BME280;44660;42.664;23.266;2023-03-25T08:22:25;94080.19;;;36.69;16.98
58879;BME280;44660;42.664;23.266;2023-03-25T08:24:51;94050.50;;;35.98;15.90
58879;BME280;44660;42.664;23.266;2023-03-25T08:27:17;94077.00;;;36.23;16.30
58879;BME280;44660;42.664;23.266;2023-03-25T08:29:43;94079.13;;;35.88;15.82
58879;BME280;44660;42.664;23.266;2023-03-25T08:32:08;94047.44;;;35.34;16.22
58879;BME280;44660;42.664;23.266;2023-03-25T08:34:34;94049.50;;;34.92;16.45
58879;BME280;44660;42.664;23.266;2023-03-25T08:37:05;94071.84;;;34.21;18.13
58879;BME280;44660;42.664;23.266;2023-03-25T08:39:31;94067.03;;;34.74;17.71
58879;BME280;44660;42.664;23.266;2023-03-25T08:42:04;94038.81;;;35.28;17.61
58879;BME280;44660;42.664;23.266;2023-03-25T08:44:29;94051.84;;;35.90;17.27
58879;BME280;44660;42.664;23.266;2023-03-25T08:46:55;94020.00;;;35.78;15.59
58879;BME280;44660;42.664;23.266;2023-03-25T08:49:21;94049.16;;;35.83;16.80
58879;BME280;44660;42.664;23.266;2023-03-25T08:51:46;94061.25;;;35.34;16.92
58879;BME280;44660;42.664;23.266;2023-03-25T08:54:11;94059.13;;;34.76;16.72
58879;BME280;44660;42.664;23.266;2023-03-25T08:56:37;94021.22;;;34.80;16.19
58879;BME280;44660;42.664;23.266;2023-03-25T08:59:03;94059.16;;;35.45;16.83
58879;BME280;44660;42.664;23.266;2023-03-25T09:01:28;94042.06;;;35.82;16.06
58879;BME280;44660;42.664;23.266;2023-03-25T09:03:54;94041.19;;;37.23;14.97
58879;BME280;44660;42.664;23.266;2023-03-25T09:06:22;94049.59;;;37.77;15.07
58879;BME280;44660;42.664;23.266;2023-03-25T09:08:47;94016.63;;;38.78;13.61
58879;BME280;44660;42.664;23.266;2023-03-25T09:11:13;94023.06;;;39.17;13.31
58879;BME280;44660;42.664;23.266;2023-03-25T09:13:39;94028.56;;;38.12;14.97
58879;BME280;44660;42.664;23.266;2023-03-25T09:16:06;94021.72;;;39.09;13.22
58879;BME280;44660;42.664;23.266;2023-03-25T09:18:31;93993.34;;;39.56;13.77
58879;BME280;44660;42.664;23.266;2023-03-25T09:20:58;94015.34;;;40.41;12.45
58879;BME280;44660;42.664;23.266;2023-03-25T09:23:24;94014.50;;;40.66;11.83
58879;BME280;44660;42.664;23.266;2023-03-25T09:25:49;94004.13;;;39.54;12.61
58879;BME280;44660;42.664;23.266;2023-03-25T09:28:14;94008.19;;;38.19;13.61
58879;BME280;44660;42.664;23.266;2023-03-25T09:30:40;94013.25;;;36.98;14.59
58879;BME280;44660;42.664;23.266;2023-03-25T09:33:06;94012.19;;;38.18;13.72
58879;BME280;44660;42.664;23.266;2023-03-25T09:35:32;94011.13;;;37.95;13.61
58879;BME280;44660;42.664;23.266;2023-03-25T09:37:57;94005.84;;;37.11;14.13
58879;BME280;44660;42.664;23.266;2023-03-25T09:40:23;94008.03;;;37.40;14.25
58879;BME280;44660;42.664;23.266;2023-03-25T09:45:41;93925.47;;;35.08;14.87
58879;BME280;44660;42.664;23.266;2023-03-25T09:50:45;93993.09;;;32.89;17.12
58879;BME280;44660;42.664;23.266;2023-03-25T09:53:22;94008.53;;;31.61;18.42
58879;BME280;44660;42.664;23.266;2023-03-25T09:55:49;94001.47;;;31.41;19.32
58879;BME280;44660;42.664;23.266;2023-03-25T10:01:36;93951.81;;;30.66;19.16
58879;BME280;44660;42.664;23.266;2023-03-25T10:06:59;94000.69;;;31.48;18.46
58879;BME280;44660;42.664;23.266;2023-03-25T10:09:38;93988.75;;;30.90;18.74
58879;BME280;44660;42.664;23.266;2023-03-25T10:15:02;93983.28;;;29.68;19.93
58879;BME280;44660;42.664;23.266;2023-03-25T10:20:43;93949.59;;;30.19;20.02
58879;BME280;44660;42.664;23.266;2023-03-25T10:25:55;93952.53;;;30.48;19.07
58879;BME280;44660;42.664;23.266;2023-03-25T10:28:31;93951.69;;;30.40;19.63
58879;BME280;44660;42.664;23.266;2023-03-25T10:30:57;93928.44;;;30.16;18.89
58879;BME280;44660;42.664;23.266;2023-03-25T10:35:49;93941.00;;;30.17;19.46
58879;BME280;44660;42.664;23.266;2023-03-25T10:38:21;93927.25;;;29.13;20.29
58879;BME280;44660;42.664;23.266;2023-03-25T10:43:39;93907.75;;;28.16;21.19
58879;BME280;44660;42.664;23.266;2023-03-25T10:46:12;93930.16;;;28.59;21.30
58879;BME280;44660;42.664;23.266;2023-03-25T10:48:38;93896.31;;;28.07;22.32
58879;BME280;44660;42.664;23.266;2023-03-25T10:51:10;93933.78;;;27.33;23.24
58879;BME280;44660;42.664;23.266;2023-03-25T10:53:39;93937.41;;;26.94;23.31
58879;BME280;44660;42.664;23.266;2023-03-25T10:56:12;93928.31;;;26.67;23.86
58879;BME280;44660;42.664;23.266;2023-03-25T10:58:39;93926.19;;;26.99;23.89
58879;BME280;44660;42.664;23.266;2023-03-25T11:01:16;93924.78;;;26.86;24.00
58879;BME280;44660;42.664;23.266;2023-03-25T11:03:45;93911.22;;;26.70;24.02
58879;BME280;44660;42.664;23.266;2023-03-25T11:06:37;93913.16;;;26.89;24.20
58879;BME280;44660;42.664;23.266;2023-03-25T11:11:34;93865.69;;;26.70;24.30
58879;BME280;44660;42.664;23.266;2023-03-25T11:14:00;93895.22;;;26.68;23.38
58879;BME280;44660;42.664;23.266;2023-03-25T11:16:31;93893.84;;;26.98;24.10
58879;BME280;44660;42.664;23.266;2023-03-25T11:19:00;93888.38;;;27.21;23.53
58879;BME280;44660;42.664;23.266;2023-03-25T11:21:31;93886.13;;;27.50;23.57
58879;BME280;44660;42.664;23.266;2023-03-25T11:23:57;93887.97;;;27.69;23.29
58879;BME280;44660;42.664;23.266;2023-03-25T11:26:35;93884.16;;;27.47;22.93
58879;BME280;44660;42.664;23.266;2023-03-25T11:29:08;93882.66;;;27.30;22.85
58879;BME280;44660;42.664;23.266;2023-03-25T11:31:37;93886.75;;;26.93;22.57
58879;BME280;44660;42.664;23.266;2023-03-25T11:36:59;93865.22;;;26.26;22.49
58879;BME280;44660;42.664;23.266;2023-03-25T11:39:29;93864.88;;;26.07;23.15
58879;BME280;44660;42.664;23.266;2023-03-25T11:41:56;93859.47;;;25.91;23.25
58879;BME280;44660;42.664;23.266;2023-03-25T11:44:30;93816.91;;;25.83;23.52
58879;BME280;44660;42.664;23.266;2023-03-25T11:47:04;93805.03;;;25.56;23.71
58879;BME280;44660;42.664;23.266;2023-03-25T11:49:34;93837.25;;;25.89;23.89
58879;BME280;44660;42.664;23.266;2023-03-25T11:52:08;93823.06;;;25.80;23.49
58879;BME280;44660;42.664;23.266;2023-03-25T11:54:38;93818.03;;;25.82;23.05
58879;BME280;44660;42.664;23.266;2023-03-25T11:57:11;93837.63;;;26.07;23.23
58879;BME280;44660;42.664;23.266;2023-03-25T11:59:42;93841.03;;;25.85;23.13
58879;BME280;44660;42.664;23.266;2023-03-25T12:02:22;93813.41;;;25.31;23.98
58879;BME280;44660;42.664;23.266;2023-03-25T12:07:50;93794.97;;;24.89;24.30
58879;BME280;44660;42.664;23.266;2023-03-25T12:10:18;93834.50;;;25.02;24.39
58879;BME280;44660;42.664;23.266;2023-03-25T12:12:55;93827.06;;;24.83;24.86
58879;BME280;44660;42.664;23.266;2023-03-25T12:15:35;93833.72;;;24.41;24.72
58879;BME280;44660;42.664;23.266;2023-03-25T12:23:52;93832.06;;;23.55;25.89
58879;BME280;44660;42.664;23.266;2023-03-25T12:26:36;93832.91;;;23.31;26.10
58879;BME280;44660;42.664;23.266;2023-03-25T12:32:12;93843.44;;;23.20;26.34
58879;BME280;44660;42.664;23.266;2023-03-25T12:42:43;93837.41;;;23.52;26.17
58879;BME280;44660;42.664;23.266;2023-03-25T12:53:09;93826.34;;;22.95;26.13
58879;BME280;44660;42.664;23.266;2023-03-25T12:58:34;93834.34;;;22.79;26.98
58879;BME280;44660;42.664;23.266;2023-03-25T13:04:12;93808.16;;;22.71;26.22
58879;BME280;44660;42.664;23.266;2023-03-25T13:07:03;93837.84;;;22.92;26.36
58879;BME280;44660;42.664;23.266;2023-03-25T13:09:35;93822.72;;;22.66;26.60
58879;BME280;44660;42.664;23.266;2023-03-25T13:12:08;93775.16;;;22.10;27.35
58879;BME280;44660;42.664;23.266;2023-03-25T13:14:39;93831.44;;;22.38;27.71
58879;BME280;44660;42.664;23.266;2023-03-25T13:17:19;93828.03;;;22.29;28.41
58879;BME280;44660;42.664;23.266;2023-03-25T13:19:50;93791.28;;;22.07;28.76
58879;BME280;44660;42.664;23.266;2023-03-25T13:22:22;93812.19;;;22.18;28.68
58879;BME280;44660;42.664;23.266;2023-03-25T13:25:00;93810.34;;;21.98;28.24
58879;BME280;44660;42.664;23.266;2023-03-25T13:27:34;93855.41;;;21.94;29.58
58879;BME280;44660;42.664;23.266;2023-03-25T13:30:06;93849.06;;;21.90;31.31
58879;BME280;44660;42.664;23.266;2023-03-25T13:32:41;93845.50;;;21.77;31.77
58879;BME280;44660;42.664;23.266;2023-03-25T13:37:45;93849.88;;;21.69;31.38
58879;BME280;44660;42.664;23.266;2023-03-25T13:40:29;93834.75;;;21.38;32.12
58879;BME280;44660;42.664;23.266;2023-03-25T13:45:28;93876.13;;;20.61;32.41
58879;BME280;44660;42.664;23.266;2023-03-25T13:48:15;93890.66;;;20.13;34.71
58879;BME280;44660;42.664;23.266;2023-03-25T13:50:43;93893.03;;;19.88;35.54
58879;BME280;44660;42.664;23.266;2023-03-25T13:53:28;93907.88;;;19.59;37.13
58879;BME280;44660;42.664;23.266;2023-03-25T14:01:50;93861.09;;;18.57;40.02
58879;BME280;44660;42.664;23.266;2023-03-25T14:04:25;93916.53;;;18.89;40.42
58879;BME280;44660;42.664;23.266;2023-03-25T14:13:05;93888.22;;;18.15;43.15
58879;BME280;44660;42.664;23.266;2023-03-25T14:15:35;93914.53;;;17.95;44.94
58879;BME280;44660;42.664;23.266;2023-03-25T14:18:02;93905.31;;;17.74;45.80
58879;BME280;44660;42.664;23.266;2023-03-25T14:20:33;93894.41;;;17.42;46.03
58879;BME280;44660;42.664;23.266;2023-03-25T14:23:05;93899.97;;;17.60;45.82
58879;BME280;44660;42.664;23.266;2023-03-25T14:25:38;93905.06;;;17.48;46.34
58879;BME280;44660;42.664;23.266;2023-03-25T14:28:06;93913.91;;;17.34;47.03
58879;BME280;44660;42.664;23.266;2023-03-25T14:30:33;93886.38;;;17.14;47.66
58879;BME280;44660;42.664;23.266;2023-03-25T14:32:59;93897.00;;;17.34;48.31
58879;BME280;44660;42.664;23.266;2023-03-25T14:46:21;93819.41;;;16.21;54.65
58879;BME280;44660;42.664;23.266;2023-03-25T14:49:18;93820.72;;;16.23;55.26
58879;BME280;44660;42.664;23.266;2023-03-25T14:51:48;93824.81;;;16.35;56.29
58879;BME280;44660;42.664;23.266;2023-03-25T14:54:29;93811.59;;;16.38;56.91
58879;BME280;44660;42.664;23.266;2023-03-25T14:57:12;93803.94;;;16.45;56.90
58879;BME280;44660;42.664;23.266;2023-03-25T14:59:44;93748.69;;;16.16;57.07
58879;BME280;44660;42.664;23.266;2023-03-25T15:02:14;93809.19;;;16.64;57.45
58879;BME280;44660;42.664;23.266;2023-03-25T15:04:42;93796.59;;;16.51;57.78
58879;BME280;44660;42.664;23.266;2023-03-25T15:07:14;93787.91;;;16.26;56.44
58879;BME280;44660;42.664;23.266;2023-03-25T15:09:50;93801.16;;;16.37;56.03